sensor_id;sensor_type;location;lat;lon;timestamp;P1;durP1;ratioP1;P2;durP2;ratioP2
12625;SDS011;6378;42.684;23.372;2022-10-16T00:00:56;20.17;;;13.73;;
12625;SDS011;6378;42.684;23.372;2022-10-16T00:03:22;19.97;;;13.27;;
12625;SDS011;6378;42.684;23.372;2022-10-16T00:05:47;21.90;;;14.57;;
12625;SDS011;6378;42.684;23.372;2022-10-16T00:08:13;19.80;;;13.35;;
12625;SDS011;6378;42.684;23.372;2022-10-16T00:10:38;20.37;;;14.20;;
12625;SDS011;6378;42.684;23.372;2022-10-16T00:13:04;18.90;;;14.30;;
12625;SDS011;6378;42.684;23.372;2022-10-16T00:15:32;18.50;;;13.00;;
12625;SDS011;6378;42.684;23.372;2022-10-16T00:18:01;17.93;;;13.10;;
12625;SDS011;6378;42.684;23.372;2022-10-16T00:20:27;15.85;;;12.70;;
12625;SDS011;6378;42.684;23.372;2022-10-16T00:22:52;20.80;;;13.63;;
12625;SDS011;6378;42.684;23.372;2022-10-16T00:25:18;19.17;;;12.25;;
12625;SDS011;6378;42.684;23.372;2022-10-16T00:27:43;16.63;;;12.57;;
12625;SDS011;6378;42.684;23.372;2022-10-16T00:30:09;16.57;;;12.43;;
12625;SDS011;6378;42.684;23.372;2022-10-16T00:32:35;18.50;;;12.20;;
12625;SDS011;6378;42.684;23.372;2022-10-16T00:35:00;16.70;;;12.00;;
12625;SDS011;6378;42.684;23.372;2022-10-16T00:37:25;16.90;;;11.47;;
12625;SDS011;6378;42.684;23.372;2022-10-16T00:39:51;17.33;;;11.10;;
12625;SDS011;6378;42.684;23.372;2022-10-16T00:42:16;14.50;;;11.17;;
12625;SDS011;6378;42.684;23.372;2022-10-16T00:44:48;17.57;;;11.63;;
12625;SDS011;6378;42.684;23.372;2022-10-16T00:47:19;15.40;;;11.43;;
12625;SDS011;6378;42.684;23.372;2022-10-16T00:49:46;13.63;;;11.17;;
12625;SDS011;6378;42.684;23.372;2022-10-16T00:52:14;14.40;;;10.07;;
12625;SDS011;6378;42.684;23.372;2022-10-16T00:54:39;16.00;;;11.83;;
12625;SDS011;6378;42.684;23.372;2022-10-16T00:57:06;15.77;;;11.30;;
12625;SDS011;6378;42.684;23.372;2022-10-16T00:59:33;18.17;;;12.17;;
12625;SDS011;6378;42.684;23.372;2022-10-16T01:02:01;15.00;;;11.00;;
12625;SDS011;6378;42.684;23.372;2022-10-16T01:04:29;14.13;;;11.20;;
12625;SDS011;6378;42.684;23.372;2022-10-16T01:07:09;15.30;;;11.10;;
12625;SDS011;6378;42.684;23.372;2022-10-16T01:12:43;18.57;;;12.53;;
12625;SDS011;6378;42.684;23.372;2022-10-16T01:15:22;16.57;;;12.70;;
12625;SDS011;6378;42.684;23.372;2022-10-16T01:20:44;18.63;;;12.87;;
12625;SDS011;6378;42.684;23.372;2022-10-16T01:29:07;18.60;;;13.43;;
12625;SDS011;6378;42.684;23.372;2022-10-16T01:31:40;19.70;;;13.47;;
12625;SDS011;6378;42.684;23.372;2022-10-16T01:34:17;20.57;;;13.70;;
12625;SDS011;6378;42.684;23.372;2022-10-16T01:36:51;18.13;;;13.23;;
12625;SDS011;6378;42.684;23.372;2022-10-16T01:39:21;20.13;;;13.47;;
12625;SDS011;6378;42.684;23.372;2022-10-16T01:41:51;18.33;;;13.07;;
12625;SDS011;6378;42.684;23.372;2022-10-16T01:44:25;18.07;;;13.50;;
12625;SDS011;6378;42.684;23.372;2022-10-16T01:46:54;17.17;;;13.10;;
12625;SDS011;6378;42.684;23.372;2022-10-16T01:49:21;17.03;;;12.77;;
12625;SDS011;6378;42.684;23.372;2022-10-16T01:51:50;16.03;;;12.40;;
12625;SDS011;6378;42.684;23.372;2022-10-16T01:54:19;18.67;;;12.63;;
12625;SDS011;6378;42.684;23.372;2022-10-16T01:56:47;19.87;;;12.50;;
12625;SDS011;6378;42.684;23.372;2022-10-16T01:59:16;23.37;;;14.13;;
12625;SDS011;6378;42.684;23.372;2022-10-16T02:01:49;25.37;;;16.53;;
12625;SDS011;6378;42.684;23.372;2022-10-16T02:04:39;23.63;;;16.47;;
12625;SDS011;6378;42.684;23.372;2022-10-16T02:07:07;23.63;;;15.87;;
12625;SDS011;6378;42.684;23.372;2022-10-16T02:09:33;41.90;;;25.93;;
12625;SDS011;6378;42.684;23.372;2022-10-16T02:12:01;35.53;;;23.07;;
12625;SDS011;6378;42.684;23.372;2022-10-16T02:14:33;34.17;;;21.83;;
12625;SDS011;6378;42.684;23.372;2022-10-16T02:17:00;35.50;;;21.80;;
12625;SDS011;6378;42.684;23.372;2022-10-16T02:19:26;35.73;;;22.30;;
12625;SDS011;6378;42.684;23.372;2022-10-16T02:21:58;45.97;;;28.57;;
12625;SDS011;6378;42.684;23.372;2022-10-16T02:27:17;34.07;;;20.73;;
12625;SDS011;6378;42.684;23.372;2022-10-16T02:29:52;31.93;;;19.13;;
12625;SDS011;6378;42.684;23.372;2022-10-16T02:32:24;28.93;;;19.47;;
12625;SDS011;6378;42.684;23.372;2022-10-16T02:34:55;24.37;;;17.33;;
12625;SDS011;6378;42.684;23.372;2022-10-16T02:37:22;29.07;;;18.50;;
12625;SDS011;6378;42.684;23.372;2022-10-16T02:39:49;29.17;;;18.53;;
12625;SDS011;6378;42.684;23.372;2022-10-16T02:42:17;30.83;;;19.30;;
12625;SDS011;6378;42.684;23.372;2022-10-16T02:44:42;25.77;;;18.13;;
12625;SDS011;6378;42.684;23.372;2022-10-16T02:47:08;31.30;;;19.70;;
12625;SDS011;6378;42.684;23.372;2022-10-16T02:49:33;30.20;;;18.73;;
12625;SDS011;6378;42.684;23.372;2022-10-16T02:51:59;28.40;;;19.43;;
12625;SDS011;6378;42.684;23.372;2022-10-16T02:54:24;29.40;;;18.80;;
12625;SDS011;6378;42.684;23.372;2022-10-16T02:56:49;25.33;;;16.87;;
12625;SDS011;6378;42.684;23.372;2022-10-16T02:59:15;25.30;;;17.03;;
12625;SDS011;6378;42.684;23.372;2022-10-16T03:01:40;24.40;;;16.10;;
12625;SDS011;6378;42.684;23.372;2022-10-16T03:04:06;24.47;;;16.50;;
12625;SDS011;6378;42.684;23.372;2022-10-16T03:06:31;26.10;;;16.70;;
12625;SDS011;6378;42.684;23.372;2022-10-16T03:08:57;27.97;;;17.50;;
12625;SDS011;6378;42.684;23.372;2022-10-16T03:11:22;27.03;;;17.53;;
12625;SDS011;6378;42.684;23.372;2022-10-16T03:13:47;22.70;;;16.73;;
12625;SDS011;6378;42.684;23.372;2022-10-16T03:16:13;24.03;;;15.97;;
12625;SDS011;6378;42.684;23.372;2022-10-16T03:18:38;23.90;;;15.73;;
12625;SDS011;6378;42.684;23.372;2022-10-16T03:21:04;24.13;;;15.23;;
12625;SDS011;6378;42.684;23.372;2022-10-16T03:23:29;22.20;;;15.37;;
12625;SDS011;6378;42.684;23.372;2022-10-16T03:25:55;22.07;;;14.37;;
12625;SDS011;6378;42.684;23.372;2022-10-16T03:28:20;22.43;;;15.10;;
12625;SDS011;6378;42.684;23.372;2022-10-16T03:30:46;22.93;;;15.03;;
12625;SDS011;6378;42.684;23.372;2022-10-16T03:33:11;21.90;;;15.00;;
12625;SDS011;6378;42.684;23.372;2022-10-16T03:35:37;21.97;;;14.70;;
12625;SDS011;6378;42.684;23.372;2022-10-16T03:38:02;20.23;;;14.77;;
12625;SDS011;6378;42.684;23.372;2022-10-16T03:40:28;17.33;;;12.63;;
12625;SDS011;6378;42.684;23.372;2022-10-16T03:42:53;20.27;;;14.30;;
12625;SDS011;6378;42.684;23.372;2022-10-16T03:45:22;20.03;;;14.27;;
12625;SDS011;6378;42.684;23.372;2022-10-16T03:47:48;18.97;;;13.40;;
12625;SDS011;6378;42.684;23.372;2022-10-16T03:50:13;21.20;;;14.33;;
12625;SDS011;6378;42.684;23.372;2022-10-16T03:52:39;21.80;;;13.07;;
12625;SDS011;6378;42.684;23.372;2022-10-16T03:55:04;19.40;;;13.83;;
12625;SDS011;6378;42.684;23.372;2022-10-16T03:57:30;18.60;;;13.60;;
12625;SDS011;6378;42.684;23.372;2022-10-16T03:59:56;20.90;;;13.13;;
12625;SDS011;6378;42.684;23.372;2022-10-16T04:02:21;20.47;;;15.10;;
12625;SDS011;6378;42.684;23.372;2022-10-16T04:04:46;21.40;;;14.90;;
12625;SDS011;6378;42.684;23.372;2022-10-16T04:07:12;20.50;;;13.43;;
12625;SDS011;6378;42.684;23.372;2022-10-16T04:09:37;17.97;;;13.90;;
12625;SDS011;6378;42.684;23.372;2022-10-16T04:12:03;22.07;;;14.33;;
12625;SDS011;6378;42.684;23.372;2022-10-16T04:14:28;20.43;;;12.80;;
12625;SDS011;6378;42.684;23.372;2022-10-16T04:16:53;17.70;;;12.67;;
12625;SDS011;6378;42.684;23.372;2022-10-16T04:19:19;18.17;;;13.03;;
12625;SDS011;6378;42.684;23.372;2022-10-16T04:21:44;20.43;;;13.23;;
12625;SDS011;6378;42.684;23.372;2022-10-16T04:24:10;19.87;;;12.40;;
12625;SDS011;6378;42.684;23.372;2022-10-16T04:26:36;16.20;;;11.93;;
12625;SDS011;6378;42.684;23.372;2022-10-16T04:29:02;20.80;;;12.63;;
12625;SDS011;6378;42.684;23.372;2022-10-16T04:31:27;18.97;;;12.27;;
12625;SDS011;6378;42.684;23.372;2022-10-16T04:33:53;17.80;;;13.10;;
12625;SDS011;6378;42.684;23.372;2022-10-16T04:36:18;18.17;;;12.87;;
12625;SDS011;6378;42.684;23.372;2022-10-16T04:38:43;18.47;;;12.40;;
12625;SDS011;6378;42.684;23.372;2022-10-16T04:41:09;18.13;;;12.50;;
12625;SDS011;6378;42.684;23.372;2022-10-16T04:43:34;28.33;;;19.47;;
12625;SDS011;6378;42.684;23.372;2022-10-16T04:46:00;30.47;;;21.27;;
12625;SDS011;6378;42.684;23.372;2022-10-16T04:48:25;30.27;;;20.47;;
12625;SDS011;6378;42.684;23.372;2022-10-16T04:50:51;44.83;;;30.43;;
12625;SDS011;6378;42.684;23.372;2022-10-16T04:53:16;28.03;;;18.97;;
12625;SDS011;6378;42.684;23.372;2022-10-16T04:55:42;63.87;;;45.27;;
12625;SDS011;6378;42.684;23.372;2022-10-16T04:58:08;41.70;;;27.20;;
12625;SDS011;6378;42.684;23.372;2022-10-16T05:00:34;42.33;;;29.07;;
12625;SDS011;6378;42.684;23.372;2022-10-16T05:03:00;32.10;;;22.27;;
12625;SDS011;6378;42.684;23.372;2022-10-16T05:05:26;30.33;;;21.63;;
12625;SDS011;6378;42.684;23.372;2022-10-16T05:07:52;24.73;;;18.37;;
12625;SDS011;6378;42.684;23.372;2022-10-16T05:10:18;20.70;;;15.30;;
12625;SDS011;6378;42.684;23.372;2022-10-16T05:12:44;24.33;;;15.53;;
12625;SDS011;6378;42.684;23.372;2022-10-16T05:15:09;22.97;;;16.37;;
12625;SDS011;6378;42.684;23.372;2022-10-16T05:17:35;16.05;;;13.23;;
12625;SDS011;6378;42.684;23.372;2022-10-16T05:20:01;17.08;;;11.85;;
12625;SDS011;6378;42.684;23.372;2022-10-16T05:22:26;17.92;;;11.27;;
12625;SDS011;6378;42.684;23.372;2022-10-16T05:24:52;20.60;;;13.50;;
12625;SDS011;6378;42.684;23.372;2022-10-16T05:27:17;18.13;;;11.90;;
12625;SDS011;6378;42.684;23.372;2022-10-16T05:29:46;18.30;;;12.20;;
12625;SDS011;6378;42.684;23.372;2022-10-16T05:32:13;18.83;;;14.18;;
12625;SDS011;6378;42.684;23.372;2022-10-16T05:34:39;24.00;;;16.83;;
12625;SDS011;6378;42.684;23.372;2022-10-16T05:37:05;16.02;;;10.65;;
12625;SDS011;6378;42.684;23.372;2022-10-16T05:39:30;14.45;;;11.57;;
12625;SDS011;6378;42.684;23.372;2022-10-16T05:41:55;14.13;;;10.13;;
12625;SDS011;6378;42.684;23.372;2022-10-16T05:44:21;16.83;;;10.90;;
12625;SDS011;6378;42.684;23.372;2022-10-16T05:46:46;15.68;;;11.57;;
12625;SDS011;6378;42.684;23.372;2022-10-16T05:49:12;16.38;;;11.65;;
12625;SDS011;6378;42.684;23.372;2022-10-16T05:51:37;16.67;;;10.65;;
12625;SDS011;6378;42.684;23.372;2022-10-16T05:54:03;14.93;;;10.50;;
12625;SDS011;6378;42.684;23.372;2022-10-16T05:56:28;17.08;;;11.07;;
12625;SDS011;6378;42.684;23.372;2022-10-16T05:58:54;15.88;;;11.30;;
12625;SDS011;6378;42.684;23.372;2022-10-16T06:01:19;17.02;;;12.13;;
12625;SDS011;6378;42.684;23.372;2022-10-16T06:03:49;16.73;;;12.43;;
12625;SDS011;6378;42.684;23.372;2022-10-16T06:06:17;16.40;;;12.98;;
12625;SDS011;6378;42.684;23.372;2022-10-16T06:08:48;22.67;;;17.00;;
12625;SDS011;6378;42.684;23.372;2022-10-16T06:11:15;21.77;;;16.88;;
12625;SDS011;6378;42.684;23.372;2022-10-16T06:13:42;23.75;;;19.92;;
12625;SDS011;6378;42.684;23.372;2022-10-16T06:16:08;27.33;;;21.02;;
12625;SDS011;6378;42.684;23.372;2022-10-16T06:18:35;27.38;;;22.02;;
12625;SDS011;6378;42.684;23.372;2022-10-16T06:21:06;28.42;;;22.92;;
12625;SDS011;6378;42.684;23.372;2022-10-16T06:23:41;32.72;;;22.20;;
12625;SDS011;6378;42.684;23.372;2022-10-16T06:26:08;24.10;;;18.77;;
12625;SDS011;6378;42.684;23.372;2022-10-16T06:28:35;28.67;;;21.67;;
12625;SDS011;6378;42.684;23.372;2022-10-16T06:31:01;30.40;;;20.80;;
12625;SDS011;6378;42.684;23.372;2022-10-16T06:33:28;26.60;;;19.33;;
12625;SDS011;6378;42.684;23.372;2022-10-16T06:35:59;24.23;;;18.83;;
12625;SDS011;6378;42.684;23.372;2022-10-16T06:38:28;24.65;;;19.42;;
12625;SDS011;6378;42.684;23.372;2022-10-16T06:40:54;25.05;;;17.95;;
12625;SDS011;6378;42.684;23.372;2022-10-16T06:43:20;20.85;;;16.60;;
12625;SDS011;6378;42.684;23.372;2022-10-16T06:45:58;21.75;;;16.45;;
12625;SDS011;6378;42.684;23.372;2022-10-16T06:48:24;21.33;;;16.42;;
12625;SDS011;6378;42.684;23.372;2022-10-16T06:53:25;21.35;;;15.75;;
12625;SDS011;6378;42.684;23.372;2022-10-16T06:55:52;19.42;;;14.98;;
12625;SDS011;6378;42.684;23.372;2022-10-16T06:58:17;18.83;;;14.65;;
12625;SDS011;6378;42.684;23.372;2022-10-16T07:00:43;17.70;;;12.88;;
12625;SDS011;6378;42.684;23.372;2022-10-16T07:03:09;14.38;;;11.88;;
12625;SDS011;6378;42.684;23.372;2022-10-16T07:05:38;19.92;;;14.93;;
12625;SDS011;6378;42.684;23.372;2022-10-16T07:08:04;12.57;;;10.02;;
12625;SDS011;6378;42.684;23.372;2022-10-16T07:10:30;13.15;;;9.60;;
12625;SDS011;6378;42.684;23.372;2022-10-16T07:12:56;11.73;;;8.80;;
12625;SDS011;6378;42.684;23.372;2022-10-16T07:15:21;10.60;;;8.88;;
12625;SDS011;6378;42.684;23.372;2022-10-16T07:17:47;13.13;;;9.68;;
12625;SDS011;6378;42.684;23.372;2022-10-16T07:20:12;11.13;;;9.30;;
12625;SDS011;6378;42.684;23.372;2022-10-16T07:22:38;14.13;;;12.50;;
12625;SDS011;6378;42.684;23.372;2022-10-16T07:25:03;9.80;;;8.77;;
12625;SDS011;6378;42.684;23.372;2022-10-16T07:27:29;12.85;;;10.55;;
12625;SDS011;6378;42.684;23.372;2022-10-16T07:29:54;12.55;;;9.88;;
12625;SDS011;6378;42.684;23.372;2022-10-16T07:32:20;14.68;;;8.80;;
12625;SDS011;6378;42.684;23.372;2022-10-16T07:34:45;11.90;;;9.00;;
12625;SDS011;6378;42.684;23.372;2022-10-16T07:37:11;9.82;;;8.82;;
12625;SDS011;6378;42.684;23.372;2022-10-16T07:39:36;9.57;;;8.48;;
12625;SDS011;6378;42.684;23.372;2022-10-16T07:42:02;9.50;;;8.30;;
12625;SDS011;6378;42.684;23.372;2022-10-16T07:44:27;12.23;;;8.60;;
12625;SDS011;6378;42.684;23.372;2022-10-16T07:47:05;15.25;;;8.88;;
12625;SDS011;6378;42.684;23.372;2022-10-16T07:49:31;11.32;;;9.20;;
12625;SDS011;6378;42.684;23.372;2022-10-16T07:52:05;10.05;;;8.38;;
12625;SDS011;6378;42.684;23.372;2022-10-16T07:54:52;10.18;;;8.20;;
12625;SDS011;6378;42.684;23.372;2022-10-16T07:57:48;12.60;;;9.40;;
12625;SDS011;6378;42.684;23.372;2022-10-16T08:32:28;15.50;;;10.30;;
12625;SDS011;6378;42.684;23.372;2022-10-16T08:38:16;11.05;;;9.85;;
12625;SDS011;6378;42.684;23.372;2022-10-16T08:40:54;11.25;;;8.27;;
12625;SDS011;6378;42.684;23.372;2022-10-16T08:43:34;8.52;;;6.30;;
12625;SDS011;6378;42.684;23.372;2022-10-16T08:49:18;7.93;;;5.82;;
12625;SDS011;6378;42.684;23.372;2022-10-16T08:51:43;7.88;;;5.85;;
12625;SDS011;6378;42.684;23.372;2022-10-16T08:56:53;8.38;;;6.80;;
12625;SDS011;6378;42.684;23.372;2022-10-16T08:59:20;8.82;;;5.70;;
12625;SDS011;6378;42.684;23.372;2022-10-16T09:01:46;5.50;;;5.00;;
12625;SDS011;6378;42.684;23.372;2022-10-16T09:11:56;7.60;;;5.45;;
12625;SDS011;6378;42.684;23.372;2022-10-16T09:20:08;6.90;;;5.35;;
12625;SDS011;6378;42.684;23.372;2022-10-16T09:22:43;8.10;;;6.32;;
12625;SDS011;6378;42.684;23.372;2022-10-16T09:25:13;8.45;;;5.95;;
12625;SDS011;6378;42.684;23.372;2022-10-16T09:27:46;6.82;;;5.50;;
12625;SDS011;6378;42.684;23.372;2022-10-16T09:30:14;6.30;;;5.28;;
12625;SDS011;6378;42.684;23.372;2022-10-16T09:32:44;8.15;;;6.07;;
12625;SDS011;6378;42.684;23.372;2022-10-16T09:35:14;5.88;;;4.95;;
12625;SDS011;6378;42.684;23.372;2022-10-16T09:37:43;7.13;;;5.70;;
12625;SDS011;6378;42.684;23.372;2022-10-16T09:40:30;8.85;;;4.93;;
12625;SDS011;6378;42.684;23.372;2022-10-16T09:46:05;9.50;;;5.10;;
12625;SDS011;6378;42.684;23.372;2022-10-16T09:48:43;6.10;;;4.45;;
12625;SDS011;6378;42.684;23.372;2022-10-16T09:51:25;7.97;;;6.07;;
12625;SDS011;6378;42.684;23.372;2022-10-16T09:53:55;7.88;;;6.15;;
12625;SDS011;6378;42.684;23.372;2022-10-16T09:56:32;6.10;;;4.68;;
12625;SDS011;6378;42.684;23.372;2022-10-16T09:59:01;6.57;;;4.70;;
12625;SDS011;6378;42.684;23.372;2022-10-16T10:01:40;5.93;;;4.93;;
12625;SDS011;6378;42.684;23.372;2022-10-16T10:04:06;5.65;;;4.50;;
12625;SDS011;6378;42.684;23.372;2022-10-16T10:06:33;6.90;;;5.80;;
12625;SDS011;6378;42.684;23.372;2022-10-16T10:09:06;5.65;;;4.95;;
12625;SDS011;6378;42.684;23.372;2022-10-16T10:16:45;5.82;;;4.82;;
12625;SDS011;6378;42.684;23.372;2022-10-16T10:19:17;7.03;;;5.32;;
12625;SDS011;6378;42.684;23.372;2022-10-16T10:21:45;4.75;;;4.32;;
12625;SDS011;6378;42.684;23.372;2022-10-16T10:24:15;6.85;;;5.60;;
12625;SDS011;6378;42.684;23.372;2022-10-16T10:26:49;7.43;;;5.72;;
12625;SDS011;6378;42.684;23.372;2022-10-16T10:40:08;6.65;;;4.80;;
12625;SDS011;6378;42.684;23.372;2022-10-16T11:01:41;4.90;;;4.22;;
12625;SDS011;6378;42.684;23.372;2022-10-16T11:07:30;6.00;;;4.60;;
12625;SDS011;6378;42.684;23.372;2022-10-16T11:10:02;5.13;;;4.57;;
12625;SDS011;6378;42.684;23.372;2022-10-16T11:12:44;6.07;;;5.10;;
12625;SDS011;6378;42.684;23.372;2022-10-16T11:18:47;5.28;;;4.65;;
12625;SDS011;6378;42.684;23.372;2022-10-16T11:21:20;5.88;;;4.57;;
12625;SDS011;6378;42.684;23.372;2022-10-16T11:23:55;5.80;;;4.38;;
12625;SDS011;6378;42.684;23.372;2022-10-16T11:26:26;5.75;;;4.20;;
12625;SDS011;6378;42.684;23.372;2022-10-16T11:28:55;4.75;;;4.30;;
12625;SDS011;6378;42.684;23.372;2022-10-16T11:31:41;5.72;;;4.30;;
12625;SDS011;6378;42.684;23.372;2022-10-16T11:34:13;5.35;;;4.70;;
12625;SDS011;6378;42.684;23.372;2022-10-16T11:37:11;5.57;;;4.30;;
12625;SDS011;6378;42.684;23.372;2022-10-16T11:39:42;5.90;;;4.55;;
12625;SDS011;6378;42.684;23.372;2022-10-16T11:55:21;5.32;;;4.43;;
12625;SDS011;6378;42.684;23.372;2022-10-16T11:58:00;5.07;;;4.10;;
12625;SDS011;6378;42.684;23.372;2022-10-16T12:00:35;4.65;;;4.15;;
12625;SDS011;6378;42.684;23.372;2022-10-16T12:08:48;5.25;;;3.85;;
12625;SDS011;6378;42.684;23.372;2022-10-16T12:13:51;5.22;;;3.88;;
12625;SDS011;6378;42.684;23.372;2022-10-16T12:16:38;4.82;;;3.63;;
12625;SDS011;6378;42.684;23.372;2022-10-16T12:19:18;4.55;;;4.10;;
12625;SDS011;6378;42.684;23.372;2022-10-16T12:21:44;4.23;;;3.83;;
12625;SDS011;6378;42.684;23.372;2022-10-16T12:24:21;4.55;;;4.07;;
12625;SDS011;6378;42.684;23.372;2022-10-16T12:26:49;8.77;;;4.63;;
12625;SDS011;6378;42.684;23.372;2022-10-16T12:34:58;5.30;;;4.80;;
12625;SDS011;6378;42.684;23.372;2022-10-16T12:39:58;5.13;;;4.30;;
12625;SDS011;6378;42.684;23.372;2022-10-16T12:42:35;6.53;;;4.50;;
12625;SDS011;6378;42.684;23.372;2022-10-16T12:45:01;6.25;;;4.10;;
12625;SDS011;6378;42.684;23.372;2022-10-16T12:47:47;4.65;;;4.13;;
12625;SDS011;6378;42.684;23.372;2022-10-16T12:53:00;4.90;;;3.88;;
12625;SDS011;6378;42.684;23.372;2022-10-16T12:55:30;5.18;;;4.35;;
12625;SDS011;6378;42.684;23.372;2022-10-16T12:58:04;5.30;;;4.20;;
12625;SDS011;6378;42.684;23.372;2022-10-16T13:03:27;4.97;;;3.88;;
12625;SDS011;6378;42.684;23.372;2022-10-16T13:23:18;5.80;;;4.20;;
12625;SDS011;6378;42.684;23.372;2022-10-16T13:26:40;5.22;;;4.50;;
12625;SDS011;6378;42.684;23.372;2022-10-16T13:29:05;5.63;;;4.20;;
12625;SDS011;6378;42.684;23.372;2022-10-16T13:31:30;4.97;;;4.47;;
12625;SDS011;6378;42.684;23.372;2022-10-16T13:33:58;7.80;;;3.70;;
12625;SDS011;6378;42.684;23.372;2022-10-16T13:44:45;4.97;;;3.78;;
12625;SDS011;6378;42.684;23.372;2022-10-16T13:47:18;5.03;;;3.67;;
12625;SDS011;6378;42.684;23.372;2022-10-16T13:52:38;5.32;;;3.90;;
12625;SDS011;6378;42.684;23.372;2022-10-16T13:55:13;3.90;;;3.50;;
12625;SDS011;6378;42.684;23.372;2022-10-16T13:57:40;5.97;;;3.97;;
12625;SDS011;6378;42.684;23.372;2022-10-16T14:02:50;4.22;;;3.72;;
12625;SDS011;6378;42.684;23.372;2022-10-16T14:05:26;3.95;;;3.47;;
12625;SDS011;6378;42.684;23.372;2022-10-16T14:07:52;6.20;;;3.53;;
12625;SDS011;6378;42.684;23.372;2022-10-16T14:10:26;3.97;;;3.60;;
12625;SDS011;6378;42.684;23.372;2022-10-16T14:13:04;7.13;;;3.53;;
12625;SDS011;6378;42.684;23.372;2022-10-16T14:15:32;5.85;;;3.78;;
12625;SDS011;6378;42.684;23.372;2022-10-16T14:17:59;4.80;;;3.70;;
12625;SDS011;6378;42.684;23.372;2022-10-16T14:20:29;5.55;;;3.65;;
12625;SDS011;6378;42.684;23.372;2022-10-16T14:22:58;5.20;;;3.88;;
12625;SDS011;6378;42.684;23.372;2022-10-16T14:25:29;5.18;;;4.20;;
12625;SDS011;6378;42.684;23.372;2022-10-16T14:27:57;4.97;;;4.40;;
12625;SDS011;6378;42.684;23.372;2022-10-16T14:30:24;6.30;;;4.05;;
12625;SDS011;6378;42.684;23.372;2022-10-16T14:32:54;6.53;;;4.10;;
12625;SDS011;6378;42.684;23.372;2022-10-16T14:35:26;5.47;;;4.45;;
12625;SDS011;6378;42.684;23.372;2022-10-16T14:38:05;5.65;;;4.55;;
12625;SDS011;6378;42.684;23.372;2022-10-16T14:40:45;7.07;;;5.03;;
12625;SDS011;6378;42.684;23.372;2022-10-16T14:43:22;5.45;;;4.55;;
12625;SDS011;6378;42.684;23.372;2022-10-16T14:45:56;8.73;;;4.80;;
12625;SDS011;6378;42.684;23.372;2022-10-16T14:48:22;7.15;;;4.82;;
12625;SDS011;6378;42.684;23.372;2022-10-16T14:50:49;6.72;;;4.82;;
12625;SDS011;6378;42.684;23.372;2022-10-16T14:53:15;7.22;;;5.10;;
12625;SDS011;6378;42.684;23.372;2022-10-16T14:55:41;5.90;;;4.38;;
12625;SDS011;6378;42.684;23.372;2022-10-16T14:58:17;5.93;;;4.40;;
12625;SDS011;6378;42.684;23.372;2022-10-16T15:00:46;6.30;;;4.72;;
12625;SDS011;6378;42.684;23.372;2022-10-16T15:03:12;7.55;;;5.10;;
12625;SDS011;6378;42.684;23.372;2022-10-16T15:05:38;7.50;;;4.60;;
12625;SDS011;6378;42.684;23.372;2022-10-16T15:08:03;6.05;;;4.80;;
12625;SDS011;6378;42.684;23.372;2022-10-16T15:10:29;7.88;;;5.35;;
12625;SDS011;6378;42.684;23.372;2022-10-16T15:12:58;6.47;;;5.07;;
12625;SDS011;6378;42.684;23.372;2022-10-16T15:17:52;8.27;;;5.90;;
12625;SDS011;6378;42.684;23.372;2022-10-16T15:20:21;7.55;;;5.47;;
12625;SDS011;6378;42.684;23.372;2022-10-16T15:22:47;9.30;;;6.03;;
12625;SDS011;6378;42.684;23.372;2022-10-16T15:25:24;6.35;;;4.75;;
12625;SDS011;6378;42.684;23.372;2022-10-16T15:27:50;7.40;;;5.60;;
12625;SDS011;6378;42.684;23.372;2022-10-16T15:30:15;9.25;;;5.75;;
12625;SDS011;6378;42.684;23.372;2022-10-16T15:32:41;8.77;;;5.78;;
12625;SDS011;6378;42.684;23.372;2022-10-16T15:35:09;9.85;;;6.93;;
12625;SDS011;6378;42.684;23.372;2022-10-16T15:37:35;10.70;;;6.88;;
12625;SDS011;6378;42.684;23.372;2022-10-16T15:40:00;13.32;;;8.02;;
12625;SDS011;6378;42.684;23.372;2022-10-16T15:42:25;12.77;;;8.20;;
12625;SDS011;6378;42.684;23.372;2022-10-16T15:44:51;11.65;;;8.30;;
12625;SDS011;6378;42.684;23.372;2022-10-16T15:47:16;13.35;;;9.18;;
12625;SDS011;6378;42.684;23.372;2022-10-16T15:49:42;14.40;;;9.27;;
12625;SDS011;6378;42.684;23.372;2022-10-16T15:52:07;13.27;;;8.02;;
12625;SDS011;6378;42.684;23.372;2022-10-16T15:54:33;11.40;;;8.15;;
12625;SDS011;6378;42.684;23.372;2022-10-16T15:56:58;15.52;;;8.00;;
12625;SDS011;6378;42.684;23.372;2022-10-16T15:59:24;9.10;;;6.88;;
12625;SDS011;6378;42.684;23.372;2022-10-16T16:01:49;12.55;;;8.10;;
12625;SDS011;6378;42.684;23.372;2022-10-16T16:04:14;13.00;;;8.30;;
12625;SDS011;6378;42.684;23.372;2022-10-16T16:06:41;17.50;;;11.07;;
12625;SDS011;6378;42.684;23.372;2022-10-16T16:09:09;16.20;;;11.65;;
12625;SDS011;6378;42.684;23.372;2022-10-16T16:11:36;21.23;;;12.88;;
12625;SDS011;6378;42.684;23.372;2022-10-16T16:14:03;15.63;;;9.93;;
12625;SDS011;6378;42.684;23.372;2022-10-16T16:16:30;19.08;;;11.70;;
12625;SDS011;6378;42.684;23.372;2022-10-16T16:18:56;10.65;;;7.93;;
12625;SDS011;6378;42.684;23.372;2022-10-16T16:21:22;16.23;;;9.85;;
12625;SDS011;6378;42.684;23.372;2022-10-16T16:23:47;15.93;;;9.87;;
12625;SDS011;6378;42.684;23.372;2022-10-16T16:26:14;14.88;;;9.25;;
12625;SDS011;6378;42.684;23.372;2022-10-16T16:28:46;12.32;;;8.60;;
12625;SDS011;6378;42.684;23.372;2022-10-16T16:31:12;16.17;;;11.20;;
12625;SDS011;6378;42.684;23.372;2022-10-16T16:33:37;13.93;;;10.02;;
12625;SDS011;6378;42.684;23.372;2022-10-16T16:36:04;18.85;;;10.68;;
12625;SDS011;6378;42.684;23.372;2022-10-16T16:38:31;14.77;;;10.05;;
12625;SDS011;6378;42.684;23.372;2022-10-16T16:40:58;16.67;;;9.77;;
12625;SDS011;6378;42.684;23.372;2022-10-16T16:43:24;14.65;;;11.30;;
12625;SDS011;6378;42.684;23.372;2022-10-16T16:45:50;17.25;;;10.20;;
12625;SDS011;6378;42.684;23.372;2022-10-16T16:48:15;14.57;;;8.73;;
12625;SDS011;6378;42.684;23.372;2022-10-16T16:50:41;10.57;;;6.72;;
12625;SDS011;6378;42.684;23.372;2022-10-16T16:53:06;10.45;;;7.38;;
12625;SDS011;6378;42.684;23.372;2022-10-16T16:55:32;19.67;;;10.23;;
12625;SDS011;6378;42.684;23.372;2022-10-16T16:57:58;9.18;;;6.35;;
12625;SDS011;6378;42.684;23.372;2022-10-16T17:00:23;9.20;;;6.88;;
12625;SDS011;6378;42.684;23.372;2022-10-16T17:02:49;6.33;;;5.67;;
12625;SDS011;6378;42.684;23.372;2022-10-16T17:05:15;7.97;;;6.57;;
12625;SDS011;6378;42.684;23.372;2022-10-16T17:07:41;9.00;;;6.97;;
12625;SDS011;6378;42.684;23.372;2022-10-16T17:10:07;9.95;;;7.30;;
12625;SDS011;6378;42.684;23.372;2022-10-16T17:12:33;54.20;;;21.80;;
12625;SDS011;6378;42.684;23.372;2022-10-16T17:14:59;37.67;;;16.27;;
12625;SDS011;6378;42.684;23.372;2022-10-16T17:17:24;25.50;;;13.57;;
12625;SDS011;6378;42.684;23.372;2022-10-16T17:19:50;20.75;;;11.45;;
12625;SDS011;6378;42.684;23.372;2022-10-16T17:22:16;18.85;;;12.50;;
12625;SDS011;6378;42.684;23.372;2022-10-16T17:24:42;29.63;;;14.50;;
12625;SDS011;6378;42.684;23.372;2022-10-16T17:27:07;20.38;;;11.52;;
12625;SDS011;6378;42.684;23.372;2022-10-16T17:29:34;25.02;;;13.10;;
12625;SDS011;6378;42.684;23.372;2022-10-16T17:31:59;24.25;;;13.10;;
12625;SDS011;6378;42.684;23.372;2022-10-16T17:34:26;20.90;;;12.70;;
12625;SDS011;6378;42.684;23.372;2022-10-16T17:36:51;24.63;;;12.13;;
12625;SDS011;6378;42.684;23.372;2022-10-16T17:39:17;19.40;;;12.98;;
12625;SDS011;6378;42.684;23.372;2022-10-16T17:41:43;25.00;;;13.75;;
12625;SDS011;6378;42.684;23.372;2022-10-16T17:44:10;30.70;;;14.40;;